createdAt,value
2023-11-11T00:02:40.948Z,99109.63
2023-11-11T00:06:42.372Z,99117.81
2023-11-11T00:10:44.290Z,99122.34
2023-11-11T00:14:45.979Z,99116.91
2023-11-11T00:18:47.372Z,99121.53
2023-11-11T00:22:50.559Z,99122.78
2023-11-11T00:26:52.035Z,99122.94
2023-11-11T00:30:53.498Z,99125.47
2023-11-11T00:34:55.001Z,99129.44
2023-11-11T00:38:56.525Z,99137.72
2023-11-11T00:42:57.855Z,99143.00
2023-11-11T00:46:59.261Z,99146.94
2023-11-11T00:51:00.685Z,99159.47
2023-11-11T00:55:02.243Z,99162.28
2023-11-11T00:59:05.573Z,99173.59
2023-11-11T01:03:07.180Z,99169.88
2023-11-11T01:07:08.714Z,99172.84
2023-11-11T01:11:10.207Z,99181.41
2023-11-11T01:15:13.644Z,99179.56
2023-11-11T01:19:15.097Z,99178.56
2023-11-11T01:23:16.815Z,99175.63
2023-11-11T01:27:18.438Z,99178.59
2023-11-11T01:31:20.024Z,99196.03
2023-11-11T01:35:21.715Z,99196.72
2023-11-11T01:39:23.498Z,99200.34
2023-11-11T01:43:24.926Z,99206.94
2023-11-11T01:47:26.610Z,99216.03
2023-11-11T01:51:30.485Z,99227.06
2023-11-11T01:55:33.519Z,99234.94
2023-11-11T01:59:36.317Z,99233.66
2023-11-11T02:03:39.441Z,99238.41
2023-11-11T02:07:41.701Z,99235.63
2023-11-11T02:11:48.803Z,99248.16
2023-11-11T02:15:50.489Z,99252.03
2023-11-11T02:19:51.855Z,99257.13
2023-11-11T02:23:54.920Z,99269.00
2023-11-11T02:27:56.732Z,99275.59
2023-11-11T02:31:58.043Z,99279.88
2023-11-11T02:35:59.412Z,99288.09
2023-11-11T02:40:00.737Z,99282.53
2023-11-11T02:44:02.146Z,99296.88
2023-11-11T02:48:04.351Z,99294.25
2023-11-11T02:52:05.891Z,99299.38
2023-11-11T02:56:07.362Z,99301.00
2023-11-11T03:00:11.504Z,99301.38
2023-11-11T03:04:13.373Z,99305.63
2023-11-11T03:08:14.922Z,99309.09
2023-11-11T03:12:16.377Z,99315.03
2023-11-11T03:16:17.870Z,99311.19
2023-11-11T03:20:19.520Z,99318.09
2023-11-11T03:24:20.936Z,99324.94
2023-11-11T03:28:22.257Z,99330.81
2023-11-11T03:32:23.642Z,99328.06
2023-11-11T03:36:25.234Z,99330.69
2023-11-11T03:40:26.621Z,99333.34
2023-11-11T03:44:27.970Z,99344.53
2023-11-11T03:48:29.987Z,99347.66
2023-11-11T03:52:31.350Z,99352.34
2023-11-11T03:56:32.721Z,99375.50
2023-11-11T04:00:34.188Z,99373.97
2023-11-11T04:04:35.656Z,99377.69
2023-11-11T04:08:40.904Z,99391.59
2023-11-11T04:12:42.458Z,99401.66
2023-11-11T04:16:45.967Z,99406.19
2023-11-11T04:20:47.438Z,99421.72
2023-11-11T04:24:49.418Z,99424.28
2023-11-11T04:28:50.773Z,99433.94
2023-11-11T04:32:52.250Z,99438.22
2023-11-11T04:36:54.782Z,99441.72
2023-11-11T04:40:58.154Z,99442.47
2023-11-11T04:45:00.432Z,99443.63
2023-11-11T04:49:01.799Z,99451.03
2023-11-11T04:53:03.144Z,99453.44
2023-11-11T04:57:04.452Z,99463.09
2023-11-11T05:01:06.696Z,99473.03
2023-11-11T05:05:11.724Z,99478.22
2023-11-11T05:09:13.540Z,99486.66
2023-11-11T05:13:16.104Z,99498.13
2023-11-11T05:17:26.572Z,99500.97
2023-11-11T05:21:27.959Z,99505.47
2023-11-11T05:25:29.335Z,99511.78
2023-11-11T05:29:30.815Z,99524.75
2023-11-11T05:33:32.565Z,99520.91
2023-11-11T05:37:33.947Z,99522.31
2023-11-11T05:41:35.334Z,99535.94
2023-11-11T05:45:36.739Z,99537.59
2023-11-11T05:49:41.845Z,99540.41
2023-11-11T05:53:43.225Z,99552.47
2023-11-11T05:57:44.718Z,99551.56
2023-11-11T06:01:47.400Z,99560.66
2023-11-11T06:05:48.993Z,99565.44
2023-11-11T06:09:50.424Z,99569.34
2023-11-11T06:13:51.821Z,99580.34
2023-11-11T06:17:53.282Z,99573.13
2023-11-11T06:21:54.729Z,99583.00
2023-11-11T06:25:56.832Z,99578.31
2023-11-11T06:29:58.462Z,99587.03
2023-11-11T06:34:01.713Z,99593.38
2023-11-11T06:38:03.248Z,99599.41
2023-11-11T06:42:04.652Z,99605.22
2023-11-11T06:46:09.480Z,99614.38
2023-11-11T06:50:11.332Z,99604.88
2023-11-11T06:54:15.090Z,99621.28
2023-11-11T06:58:16.712Z,99622.84
2023-11-11T07:02:19.648Z,99626.63
2023-11-11T07:06:24.942Z,99636.69
2023-11-11T07:10:26.389Z,99647.91
2023-11-11T07:14:27.827Z,99650.47
2023-11-11T07:18:29.329Z,99655.59
2023-11-11T07:22:31.026Z,99659.63
2023-11-11T07:26:32.448Z,99659.06
2023-11-11T07:30:34.235Z,99672.22
2023-11-11T07:34:35.569Z,99677.25
2023-11-11T07:38:37.600Z,99679.97
2023-11-11T07:42:39.175Z,99685.38
2023-11-11T07:46:40.534Z,99687.81
2023-11-11T07:50:42.664Z,99691.03
2023-11-11T07:54:44.034Z,99686.34
2023-11-11T07:58:55.513Z,99701.56
2023-11-11T08:02:57.065Z,99696.66
2023-11-11T08:06:58.534Z,99696.56
2023-11-11T08:10:59.936Z,99697.81
2023-11-11T08:15:01.649Z,99710.75
2023-11-11T08:19:05.188Z,99702.50
2023-11-11T08:23:06.554Z,99702.09
2023-11-11T08:27:08.453Z,99705.75
2023-11-11T08:31:09.912Z,99703.25
2023-11-11T08:35:16.701Z,99708.59
2023-11-11T08:39:18.702Z,99716.06
2023-11-11T08:43:21.566Z,99711.66
2023-11-11T08:47:22.999Z,99718.53
2023-11-11T08:51:24.636Z,99721.94
2023-11-11T08:55:26.859Z,99717.19
2023-11-11T08:59:28.252Z,99718.38
2023-11-11T09:03:29.791Z,99724.31
2023-11-11T09:07:31.871Z,99718.78
2023-11-11T09:11:39.115Z,99723.50
2023-11-11T09:15:40.889Z,99716.53
2023-11-11T09:19:42.345Z,99727.16
2023-11-11T09:23:43.778Z,99727.47
2023-11-11T09:27:45.243Z,99728.81
2023-11-11T09:31:47.223Z,99736.84
2023-11-11T09:35:48.588Z,99736.09
2023-11-11T09:39:50.627Z,99738.72
2023-11-11T09:43:52.736Z,99735.28
2023-11-11T09:48:01.898Z,99738.94
2023-11-11T09:52:04.904Z,99736.56
2023-11-11T09:56:09.835Z,99741.41
2023-11-11T10:00:15.984Z,99743.88
2023-11-11T10:04:17.584Z,99749.53
2023-11-11T10:08:19.595Z,99747.53
2023-11-11T10:12:21.015Z,99751.50
2023-11-11T10:16:23.254Z,99752.16
2023-11-11T10:20:26.912Z,99754.97
2023-11-11T10:24:28.958Z,99758.59
2023-11-11T10:28:33.426Z,99759.22
2023-11-11T10:36:41.775Z,99761.44
2023-11-11T10:40:43.279Z,99764.25
2023-11-11T10:44:45.051Z,99754.28
2023-11-11T10:48:47.201Z,99758.28
2023-11-11T10:52:52.445Z,99765.09
2023-11-11T10:56:57.559Z,99754.19
2023-11-11T11:01:00.106Z,99737.53
2023-11-11T11:05:10.121Z,99744.31
2023-11-11T11:09:39.454Z,99746.34
2023-11-11T11:13:44.302Z,99725.44
2023-11-11T11:17:46.944Z,99740.22
2023-11-11T11:21:51.050Z,99748.25
2023-11-11T11:25:52.514Z,99755.38
2023-11-11T11:29:54.922Z,99755.13
2023-11-11T11:33:56.629Z,99753.16
2023-11-11T11:37:59.076Z,99758.19
2023-11-11T11:42:21.623Z,99755.69
2023-11-11T11:46:23.472Z,99758.34
2023-11-11T11:50:26.783Z,99763.06
2023-11-11T11:54:28.175Z,99761.31
2023-11-11T11:58:43.070Z,99767.09
2023-11-11T12:02:44.918Z,99763.44
2023-11-11T12:06:48.455Z,99767.38
2023-11-11T12:10:49.856Z,99766.38
2023-11-11T12:14:51.376Z,99771.19
2023-11-11T12:18:54.353Z,99764.06
2023-11-11T12:22:55.801Z,99775.09
2023-11-11T12:27:03.017Z,99767.03
2023-11-11T12:31:06.253Z,99759.66
2023-11-11T12:35:08.706Z,99764.41
2023-11-11T12:39:10.222Z,99748.38
2023-11-11T12:43:13.420Z,99764.47
2023-11-11T12:47:16.129Z,99757.25
2023-11-11T12:51:39.810Z,99763.34
2023-11-11T12:55:43.411Z,99762.66
2023-11-11T12:59:54.989Z,99771.84
2023-11-11T13:04:04.471Z,99773.69
2023-11-11T13:08:08.890Z,99776.56
2023-11-11T13:12:10.845Z,99773.44
2023-11-11T13:16:13.505Z,99777.78
2023-11-11T13:20:15.604Z,99782.31
2023-11-11T13:24:17.078Z,99792.25
2023-11-11T13:28:19.248Z,99800.66
2023-11-11T13:32:20.878Z,99800.16
2023-11-11T13:36:30.336Z,99803.97
2023-11-11T13:40:40.864Z,99796.56
2023-11-11T13:44:42.315Z,99806.91
2023-11-11T13:48:43.751Z,99798.72
2023-11-11T13:52:47.235Z,99809.50
2023-11-11T13:56:50.248Z,99811.13
2023-11-11T14:00:51.587Z,99807.63
2023-11-11T14:04:53.004Z,99812.38
2023-11-11T14:08:58.778Z,99811.88
2023-11-11T14:13:00.218Z,99816.25
2023-11-11T14:17:02.794Z,99819.56
2023-11-11T14:21:04.709Z,99818.50
2023-11-11T14:25:10.113Z,99824.28
2023-11-11T14:29:12.645Z,99838.00
2023-11-11T14:33:14.332Z,99846.72
2023-11-11T14:37:16.193Z,99846.38
2023-11-11T14:41:18.633Z,99846.00
2023-11-11T14:45:21.338Z,99844.19
2023-11-11T14:49:22.756Z,99843.16
2023-11-11T14:53:24.117Z,99853.72
2023-11-11T14:57:25.504Z,99850.88
2023-11-11T15:01:26.973Z,99852.72
2023-11-11T15:05:29.715Z,99866.59
2023-11-11T15:09:31.292Z,99861.50
2023-11-11T15:13:35.937Z,99863.97
2023-11-11T15:17:40.303Z,99865.09
2023-11-11T15:21:48.860Z,99869.72
2023-11-11T15:25:53.237Z,99872.22
2023-11-11T15:29:54.632Z,99878.88
2023-11-11T15:33:57.323Z,99882.69
2023-11-11T15:38:00.410Z,99886.28
2023-11-11T15:42:02.390Z,99892.31
2023-11-11T15:46:05.264Z,99896.03
2023-11-11T15:50:07.800Z,99890.03
2023-11-11T15:54:09.381Z,99893.25
2023-11-11T15:58:10.727Z,99894.84
2023-11-11T16:02:12.256Z,99890.19
2023-11-11T16:06:13.696Z,99892.38
2023-11-11T16:10:15.146Z,99887.88
2023-11-11T16:14:16.929Z,99891.41
2023-11-11T16:18:18.462Z,99891.81
2023-11-11T16:22:20.000Z,99894.97
2023-11-11T16:26:21.988Z,99903.84
2023-11-11T16:30:24.345Z,99901.19
2023-11-11T16:34:25.829Z,99914.69
2023-11-11T16:38:27.295Z,99911.38
2023-11-11T16:42:28.799Z,99916.84
2023-11-11T16:46:32.298Z,99921.16
2023-11-11T16:50:36.061Z,99925.19
2023-11-11T16:54:37.467Z,99930.47
2023-11-11T16:58:39.976Z,99927.75
2023-11-11T17:02:41.477Z,99944.50
2023-11-11T17:06:43.138Z,99948.41
2023-11-11T17:10:47.911Z,99948.25
2023-11-11T17:14:49.367Z,99950.34
2023-11-11T17:18:50.855Z,99951.50
2023-11-11T17:22:52.444Z,99956.84
2023-11-11T17:26:54.023Z,99964.06
2023-11-11T17:30:55.570Z,99955.28
2023-11-11T17:34:57.065Z,99962.34
2023-11-11T17:38:58.425Z,99966.59
2023-11-11T17:43:04.929Z,99965.72
2023-11-11T17:47:07.469Z,99966.25
2023-11-11T17:51:16.132Z,99962.03
2023-11-11T17:55:18.195Z,99968.38
2023-11-11T17:59:20.476Z,99959.16
2023-11-11T18:03:21.979Z,99962.38
2023-11-11T18:07:23.326Z,99956.13
2023-11-11T18:11:24.702Z,99968.56
2023-11-11T18:15:26.236Z,99961.06
2023-11-11T18:19:28.265Z,99966.19
2023-11-11T18:23:29.735Z,99968.94
2023-11-11T18:27:31.113Z,99974.75
2023-11-11T18:31:32.597Z,99969.63
2023-11-11T18:35:34.037Z,99971.78
2023-11-11T18:39:35.552Z,99969.13
2023-11-11T18:43:37.358Z,99981.00
2023-11-11T18:47:38.850Z,99981.84
2023-11-11T18:51:40.555Z,99984.84
2023-11-11T18:55:43.195Z,99989.00
2023-11-11T18:59:45.368Z,99992.34
2023-11-11T19:03:46.847Z,99988.31
2023-11-11T19:07:48.316Z,99989.94
2023-11-11T19:11:49.727Z,99984.13
2023-11-11T19:15:51.795Z,99999.59
2023-11-11T19:19:53.802Z,99991.69
2023-11-11T19:23:55.418Z,99988.38
2023-11-11T19:28:01.265Z,100002.94
2023-11-11T19:32:02.877Z,99998.78
2023-11-11T19:36:04.732Z,100000.31
2023-11-11T19:40:07.090Z,99996.44
2023-11-11T19:44:08.539Z,100007.66
2023-11-11T19:48:10.056Z,100010.28
2023-11-11T19:52:11.526Z,100005.19
2023-11-11T19:56:13.340Z,100003.53
2023-11-11T20:00:15.316Z,100004.34
2023-11-11T20:04:16.877Z,100009.63
2023-11-11T20:08:18.389Z,99997.41
2023-11-11T20:12:24.413Z,99998.94
2023-11-11T20:16:25.944Z,100005.19
2023-11-11T20:20:27.435Z,100001.31
2023-11-11T20:24:28.794Z,99993.13
2023-11-11T20:28:35.996Z,99988.13
2023-11-11T20:32:37.913Z,99983.56
2023-11-11T20:36:44.416Z,99977.75
2023-11-11T20:40:45.960Z,99976.09
2023-11-11T20:44:47.362Z,99974.56
2023-11-11T20:48:48.878Z,99969.69
2023-11-11T20:52:51.567Z,99967.88
2023-11-11T20:56:52.981Z,99968.03
2023-11-11T21:00:54.508Z,99967.66
2023-11-11T21:04:57.691Z,99962.06
2023-11-11T21:08:59.224Z,99956.25
2023-11-11T21:13:01.991Z,99966.38
2023-11-11T21:17:05.175Z,99961.81
2023-11-11T21:21:06.565Z,99959.19
2023-11-11T21:25:08.521Z,99951.00
2023-11-11T21:29:09.925Z,99952.78
2023-11-11T21:33:11.369Z,99947.81
2023-11-11T21:37:12.936Z,99942.13
2023-11-11T21:41:14.423Z,99946.16
2023-11-11T21:45:16.367Z,99941.44
2023-11-11T21:49:17.717Z,99953.22
2023-11-11T21:53:20.100Z,99943.94
2023-11-11T21:57:21.471Z,99948.09
2023-11-11T22:01:23.090Z,99939.91
2023-11-11T22:05:24.972Z,99943.50
2023-11-11T22:09:26.405Z,99948.66
2023-11-11T22:13:27.734Z,99945.19
2023-11-11T22:17:29.257Z,99937.28
2023-11-11T22:21:34.287Z,99940.75
2023-11-11T22:25:36.792Z,99940.34
2023-11-11T22:29:38.156Z,99939.59
2023-11-11T22:33:39.672Z,99934.47
2023-11-11T22:37:41.125Z,99927.97
2023-11-11T22:41:43.313Z,99925.22
2023-11-11T22:45:44.704Z,99923.81
2023-11-11T22:49:48.453Z,99928.47
2023-11-11T22:53:49.904Z,99923.34
2023-11-11T22:57:51.355Z,99926.81
2023-11-11T23:01:52.856Z,99921.47
2023-11-11T23:05:54.330Z,99925.25
2023-11-11T23:09:59.116Z,99922.63
2023-11-11T23:14:01.761Z,99922.91
2023-11-11T23:18:03.431Z,99920.50
2023-11-11T23:22:05.152Z,99923.44
2023-11-11T23:26:07.099Z,99919.41
2023-11-11T23:30:09.658Z,99916.09
2023-11-11T23:34:12.091Z,99922.75
2023-11-11T23:38:13.541Z,99913.47
2023-11-11T23:42:16.884Z,99905.59
2023-11-11T23:46:18.442Z,99899.63
2023-11-11T23:50:20.441Z,99896.59
2023-11-11T23:54:25.922Z,99892.81
2023-11-11T23:58:27.243Z,99891.75
